ULLI/LED METAR and TAF weather

Enter ICAO airport designator
Station Type Date Time Source
ULLI METAR 2020/04/05 22:00 UTC NOAA

ULLI 052200Z 00000MPS CAVOK M02/M05 Q1029 R28R/090060 NOSIG


Station Type Date Time Source
ULLI Decoded METAR 2020/04/05 22:00 UTC NOAA

St. Peterburg, Russia (ULLI) 59-58N 030-18E 6M
Apr 05, 2020 - 06:00 PM EDT / 2020.04.05 2200 UTC
Wind: Calm:0
Visibility: greater than 7 mile(s):0
Temperature: 28 F (-2 C)
Dew Point: 23 F (-5 C)
Relative Humidity: 79%
Pressure (altimeter): 30.39 in. Hg (1029 hPa)
ob: ULLI 052200Z 00000MPS CAVOK M02/M05 Q1029 R28R/090060 NOSIG
cycle: 22

Station Type Date Time Source
ULLI TAF 2020/04/05 21:21 UTC NOAA

TAF TAF ULLI 051958Z 0521/0621 26003MPS 9999 SCT020
TEMPO 0602/0606 VRB01MPS 3100 BR BKN011
BECMG 0606/0608 16003MPS BKN015
TEMPO 0608/0616 3100 -SHSNRA BR BKN011 BKN018CB
TEMPO 0616/0621 3100 -DZ BR BKN010

Example: see airport list